sensor_id;sensor_type;location;lat;lon;timestamp;pressure;altitude;pressure_sealevel;temperature;humidity
12247;BME280;6186;52.022;4.692;2022-12-29T00:01:37;100010.47;;;11.30;100.00
12247;BME280;6186;52.022;4.692;2022-12-29T00:04:03;99982.34;;;11.31;100.00
12247;BME280;6186;52.022;4.692;2022-12-29T00:06:29;99985.84;;;11.31;100.00
12247;BME280;6186;52.022;4.692;2022-12-29T00:08:54;99975.00;;;11.39;100.00
12247;BME280;6186;52.022;4.692;2022-12-29T00:11:22;99975.03;;;11.37;100.00
12247;BME280;6186;52.022;4.692;2022-12-29T00:13:48;99956.00;;;11.31;100.00
12247;BME280;6186;52.022;4.692;2022-12-29T00:16:33;99966.09;;;11.42;100.00
12247;BME280;6186;52.022;4.692;2022-12-29T00:18:58;99973.09;;;11.43;100.00
12247;BME280;6186;52.022;4.692;2022-12-29T00:21:25;99951.84;;;11.46;100.00
12247;BME280;6186;52.022;4.692;2022-12-29T00:24:15;99951.78;;;11.47;100.00
12247;BME280;6186;52.022;4.692;2022-12-29T00:27:17;99939.41;;;11.49;100.00
12247;BME280;6186;52.022;4.692;2022-12-29T00:30:00;99940.28;;;11.50;100.00
12247;BME280;6186;52.022;4.692;2022-12-29T00:32:44;99926.16;;;11.51;100.00
12247;BME280;6186;52.022;4.692;2022-12-29T00:35:31;99932.28;;;11.51;100.00
12247;BME280;6186;52.022;4.692;2022-12-29T00:38:02;99946.41;;;11.50;100.00
12247;BME280;6186;52.022;4.692;2022-12-29T00:40:46;99930.59;;;11.50;100.00
12247;BME280;6186;52.022;4.692;2022-12-29T00:43:30;99935.78;;;11.52;100.00
12247;BME280;6186;52.022;4.692;2022-12-29T00:46:14;99936.66;;;11.52;100.00
12247;BME280;6186;52.022;4.692;2022-12-29T00:48:39;99927.03;;;11.51;100.00
12247;BME280;6186;52.022;4.692;2022-12-29T00:51:23;99931.50;;;11.49;100.00
12247;BME280;6186;52.022;4.692;2022-12-29T00:53:49;99928.94;;;11.48;100.00
12247;BME280;6186;52.022;4.692;2022-12-29T00:56:14;99930.69;;;11.47;100.00
12247;BME280;6186;52.022;4.692;2022-12-29T00:58:39;99922.09;;;11.44;100.00
12247;BME280;6186;52.022;4.692;2022-12-29T01:01:07;99928.28;;;11.43;100.00
12247;BME280;6186;52.022;4.692;2022-12-29T01:03:34;99924.78;;;11.42;100.00
12247;BME280;6186;52.022;4.692;2022-12-29T01:06:01;99929.25;;;11.40;100.00
12247;BME280;6186;52.022;4.692;2022-12-29T01:08:28;99922.31;;;11.39;100.00
12247;BME280;6186;52.022;4.692;2022-12-29T01:11:08;99930.25;;;11.37;100.00
12247;BME280;6186;52.022;4.692;2022-12-29T01:13:34;99911.88;;;11.36;100.00
12247;BME280;6186;52.022;4.692;2022-12-29T01:15:59;99925.13;;;11.34;100.00
12247;BME280;6186;52.022;4.692;2022-12-29T01:18:25;99933.97;;;11.33;100.00
12247;BME280;6186;52.022;4.692;2022-12-29T01:20:58;99941.00;;;11.33;100.00
12247;BME280;6186;52.022;4.692;2022-12-29T01:23:23;99952.44;;;11.32;100.00
12247;BME280;6186;52.022;4.692;2022-12-29T01:25:49;99943.69;;;11.31;100.00
12247;BME280;6186;52.022;4.692;2022-12-29T01:28:14;99930.56;;;11.30;100.00
12247;BME280;6186;52.022;4.692;2022-12-29T01:30:39;99947.25;;;11.30;100.00
12247;BME280;6186;52.022;4.692;2022-12-29T01:33:05;99942.84;;;11.31;100.00
12247;BME280;6186;52.022;4.692;2022-12-29T01:35:30;99923.53;;;11.30;100.00
12247;BME280;6186;52.022;4.692;2022-12-29T01:37:56;99908.66;;;11.29;100.00
12247;BME280;6186;52.022;4.692;2022-12-29T01:40:24;99925.38;;;11.28;100.00
12247;BME280;6186;52.022;4.692;2022-12-29T01:42:50;99941.19;;;11.28;100.00
12247;BME280;6186;52.022;4.692;2022-12-29T01:45:17;99920.09;;;11.28;100.00
12247;BME280;6186;52.022;4.692;2022-12-29T01:47:57;99928.94;;;11.27;100.00
12247;BME280;6186;52.022;4.692;2022-12-29T01:50:29;99919.47;;;11.23;100.00
12247;BME280;6186;52.022;4.692;2022-12-29T01:55:21;99920.66;;;11.16;100.00
12247;BME280;6186;52.022;4.692;2022-12-29T01:57:49;99928.59;;;11.15;100.00
12247;BME280;6186;52.022;4.692;2022-12-29T02:00:16;99936.56;;;11.13;100.00
12247;BME280;6186;52.022;4.692;2022-12-29T02:02:45;99934.88;;;11.12;100.00
12247;BME280;6186;52.022;4.692;2022-12-29T02:05:33;99946.28;;;11.11;100.00
12247;BME280;6186;52.022;4.692;2022-12-29T02:08:02;99940.22;;;11.09;100.00
12247;BME280;6186;52.022;4.692;2022-12-29T02:10:30;99950.78;;;11.09;100.00
12247;BME280;6186;52.022;4.692;2022-12-29T02:12:57;99953.53;;;11.06;100.00
12247;BME280;6186;52.022;4.692;2022-12-29T02:15:34;99950.03;;;11.06;100.00
12247;BME280;6186;52.022;4.692;2022-12-29T02:21:20;99932.53;;;11.05;100.00
12247;BME280;6186;52.022;4.692;2022-12-29T02:26:55;99924.66;;;11.05;100.00
12247;BME280;6186;52.022;4.692;2022-12-29T02:33:13;99921.47;;;10.97;100.00
12247;BME280;6186;52.022;4.692;2022-12-29T02:36:31;99914.38;;;10.99;100.00
12247;BME280;6186;52.022;4.692;2022-12-29T02:38:47;99929.28;;;10.98;100.00
12247;BME280;6186;52.022;4.692;2022-12-29T02:41:23;99929.19;;;11.01;100.00
12247;BME280;6186;52.022;4.692;2022-12-29T02:43:59;99930.09;;;11.00;100.00
12247;BME280;6186;52.022;4.692;2022-12-29T02:46:28;99930.03;;;11.02;100.00
12247;BME280;6186;52.022;4.692;2022-12-29T02:49:13;99919.56;;;11.00;100.00
12247;BME280;6186;52.022;4.692;2022-12-29T02:51:52;99934.50;;;11.00;100.00
12247;BME280;6186;52.022;4.692;2022-12-29T02:54:19;99933.66;;;10.99;100.00
12247;BME280;6186;52.022;4.692;2022-12-29T02:57:08;99919.69;;;10.97;100.00
12247;BME280;6186;52.022;4.692;2022-12-29T02:59:34;99921.53;;;10.95;100.00
12247;BME280;6186;52.022;4.692;2022-12-29T03:02:18;99920.00;;;10.90;100.00
12247;BME280;6186;52.022;4.692;2022-12-29T03:07:33;99909.66;;;10.85;100.00
12247;BME280;6186;52.022;4.692;2022-12-29T03:15:41;99919.94;;;10.70;100.00
12247;BME280;6186;52.022;4.692;2022-12-29T03:19:08;99915.41;;;10.73;100.00
12247;BME280;6186;52.022;4.692;2022-12-29T03:24:22;99901.34;;;10.74;100.00
12247;BME280;6186;52.022;4.692;2022-12-29T03:26:53;99910.91;;;10.77;100.00
12247;BME280;6186;52.022;4.692;2022-12-29T03:29:20;99909.97;;;10.78;100.00
12247;BME280;6186;52.022;4.692;2022-12-29T03:31:47;99909.91;;;10.79;100.00
12247;BME280;6186;52.022;4.692;2022-12-29T03:34:15;99908.38;;;10.74;100.00
12247;BME280;6186;52.022;4.692;2022-12-29T03:36:51;99904.72;;;10.78;100.00
12247;BME280;6186;52.022;4.692;2022-12-29T03:39:20;99905.75;;;10.74;100.00
12247;BME280;6186;52.022;4.692;2022-12-29T03:41:50;99905.69;;;10.75;100.00
12247;BME280;6186;52.022;4.692;2022-12-29T03:44:31;99895.34;;;10.71;100.00
12247;BME280;6186;52.022;4.692;2022-12-29T03:46:57;99898.78;;;10.73;100.00
12247;BME280;6186;52.022;4.692;2022-12-29T03:49:22;99909.31;;;10.73;100.00
12247;BME280;6186;52.022;4.692;2022-12-29T03:51:48;99904.94;;;10.72;100.00
12247;BME280;6186;52.022;4.692;2022-12-29T03:54:13;99909.41;;;10.70;100.00
12247;BME280;6186;52.022;4.692;2022-12-29T03:56:38;99914.50;;;10.74;100.00
12247;BME280;6186;52.022;4.692;2022-12-29T03:59:03;99924.19;;;10.74;100.00
12247;BME280;6186;52.022;4.692;2022-12-29T04:01:29;99912.84;;;10.72;100.00
12247;BME280;6186;52.022;4.692;2022-12-29T04:03:54;99926.88;;;10.72;100.00
12247;BME280;6186;52.022;4.692;2022-12-29T04:06:19;99917.25;;;10.71;100.00
12247;BME280;6186;52.022;4.692;2022-12-29T04:08:45;99920.75;;;10.72;100.00
12247;BME280;6186;52.022;4.692;2022-12-29T04:11:10;99918.19;;;10.70;100.00
12247;BME280;6186;52.022;4.692;2022-12-29T04:13:35;99922.72;;;10.67;100.00
12247;BME280;6186;52.022;4.692;2022-12-29T04:16:01;99937.72;;;10.65;100.00
12247;BME280;6186;52.022;4.692;2022-12-29T04:18:26;99927.31;;;10.62;100.00
12247;BME280;6186;52.022;4.692;2022-12-29T04:20:51;99922.88;;;10.62;100.00
12247;BME280;6186;52.022;4.692;2022-12-29T04:23:26;99915.19;;;10.58;100.00
12247;BME280;6186;52.022;4.692;2022-12-29T04:25:52;99933.41;;;10.62;100.00
12247;BME280;6186;52.022;4.692;2022-12-29T04:28:18;99931.66;;;10.63;100.00
12247;BME280;6186;52.022;4.692;2022-12-29T04:30:43;99920.31;;;10.61;100.00
12247;BME280;6186;52.022;4.692;2022-12-29T04:33:10;99923.88;;;10.60;100.00
12247;BME280;6186;52.022;4.692;2022-12-29T04:35:35;99923.94;;;10.58;100.00
12247;BME280;6186;52.022;4.692;2022-12-29T04:38:01;99924.97;;;10.54;100.00
12247;BME280;6186;52.022;4.692;2022-12-29T04:40:26;99919.97;;;10.48;100.00
12247;BME280;6186;52.022;4.692;2022-12-29T04:42:52;99940.28;;;10.45;100.00
12247;BME280;6186;52.022;4.692;2022-12-29T04:45:17;99949.19;;;10.40;100.00
12247;BME280;6186;52.022;4.692;2022-12-29T04:47:42;99943.22;;;10.37;100.00
12247;BME280;6186;52.022;4.692;2022-12-29T04:50:08;99952.00;;;10.36;100.00
12247;BME280;6186;52.022;4.692;2022-12-29T04:52:34;99942.41;;;10.35;100.00
12247;BME280;6186;52.022;4.692;2022-12-29T04:54:59;99938.97;;;10.33;100.00
12247;BME280;6186;52.022;4.692;2022-12-29T04:57:24;99945.88;;;10.35;100.00
12247;BME280;6186;52.022;4.692;2022-12-29T04:59:50;99942.34;;;10.36;100.00
12247;BME280;6186;52.022;4.692;2022-12-29T05:02:16;99954.63;;;10.36;100.00
12247;BME280;6186;52.022;4.692;2022-12-29T05:04:41;99969.50;;;10.37;100.00
12247;BME280;6186;52.022;4.692;2022-12-29T05:07:07;99959.03;;;10.35;100.00
12247;BME280;6186;52.022;4.692;2022-12-29T05:09:32;99959.03;;;10.35;100.00
12247;BME280;6186;52.022;4.692;2022-12-29T05:11:58;99962.66;;;10.33;100.00
12247;BME280;6186;52.022;4.692;2022-12-29T05:14:23;99960.06;;;10.31;100.00
12247;BME280;6186;52.022;4.692;2022-12-29T05:16:48;99964.53;;;10.29;100.00
12247;BME280;6186;52.022;4.692;2022-12-29T05:19:14;99973.41;;;10.27;100.00
12247;BME280;6186;52.022;4.692;2022-12-29T05:21:39;99979.63;;;10.24;100.00
12247;BME280;6186;52.022;4.692;2022-12-29T05:24:04;99980.47;;;10.25;100.00
12247;BME280;6186;52.022;4.692;2022-12-29T05:26:30;99982.31;;;10.23;100.00
12247;BME280;6186;52.022;4.692;2022-12-29T05:28:55;99984.25;;;10.18;100.00
12247;BME280;6186;52.022;4.692;2022-12-29T05:31:20;99985.00;;;10.21;100.00
12247;BME280;6186;52.022;4.692;2022-12-29T05:33:46;99980.72;;;10.19;100.00
12247;BME280;6186;52.022;4.692;2022-12-29T05:36:11;99979.03;;;10.16;100.00
12247;BME280;6186;52.022;4.692;2022-12-29T05:38:37;99970.31;;;10.16;100.00
12247;BME280;6186;52.022;4.692;2022-12-29T05:41:02;99972.16;;;10.14;100.00
12247;BME280;6186;52.022;4.692;2022-12-29T05:43:28;99978.47;;;10.07;100.00
12247;BME280;6186;52.022;4.692;2022-12-29T05:45:54;99988.97;;;10.08;100.00
12247;BME280;6186;52.022;4.692;2022-12-29T05:48:20;99966.44;;;10.01;100.00
12247;BME280;6186;52.022;4.692;2022-12-29T05:50:50;99981.09;;;10.08;100.00
12247;BME280;6186;52.022;4.692;2022-12-29T05:53:16;99988.16;;;10.06;100.00
12247;BME280;6186;52.022;4.692;2022-12-29T05:55:42;99996.13;;;10.05;100.00
12247;BME280;6186;52.022;4.692;2022-12-29T05:58:08;99997.88;;;10.04;100.00
12247;BME280;6186;52.022;4.692;2022-12-29T06:00:33;100000.56;;;10.03;100.00
12247;BME280;6186;52.022;4.692;2022-12-29T06:02:59;100004.09;;;10.02;100.00
12247;BME280;6186;52.022;4.692;2022-12-29T06:05:24;100022.56;;;10.00;100.00
12247;BME280;6186;52.022;4.692;2022-12-29T06:07:49;99995.63;;;9.94;100.00
12247;BME280;6186;52.022;4.692;2022-12-29T06:10:15;100023.44;;;10.01;100.00
12247;BME280;6186;52.022;4.692;2022-12-29T06:12:40;100033.97;;;9.99;100.00
12247;BME280;6186;52.022;4.692;2022-12-29T06:15:06;100031.41;;;9.98;100.00
12247;BME280;6186;52.022;4.692;2022-12-29T06:17:32;100024.50;;;9.95;100.00
12247;BME280;6186;52.022;4.692;2022-12-29T06:19:57;100021.97;;;9.92;100.00
12247;BME280;6186;52.022;4.692;2022-12-29T06:22:23;100025.53;;;9.91;100.00
12247;BME280;6186;52.022;4.692;2022-12-29T06:24:49;100018.53;;;9.90;100.00
12247;BME280;6186;52.022;4.692;2022-12-29T06:27:14;100008.03;;;9.90;100.00
12247;BME280;6186;52.022;4.692;2022-12-29T06:29:39;100013.34;;;9.89;100.00
12247;BME280;6186;52.022;4.692;2022-12-29T06:32:06;99996.97;;;9.81;100.00
12247;BME280;6186;52.022;4.692;2022-12-29T06:34:31;100005.56;;;9.86;100.00
12247;BME280;6186;52.022;4.692;2022-12-29T06:36:57;100010.88;;;9.84;100.00
12247;BME280;6186;52.022;4.692;2022-12-29T06:39:22;100011.78;;;9.83;100.00
12247;BME280;6186;52.022;4.692;2022-12-29T06:41:47;100009.16;;;9.83;100.00
12247;BME280;6186;52.022;4.692;2022-12-29T06:44:13;100003.91;;;9.83;100.00
12247;BME280;6186;52.022;4.692;2022-12-29T06:46:38;100007.53;;;9.79;100.00
12247;BME280;6186;52.022;4.692;2022-12-29T06:49:04;100019.72;;;9.82;100.00
12247;BME280;6186;52.022;4.692;2022-12-29T06:51:29;99998.06;;;9.75;100.00
12247;BME280;6186;52.022;4.692;2022-12-29T06:53:54;100014.69;;;9.76;100.00
12247;BME280;6186;52.022;4.692;2022-12-29T06:56:19;100015.75;;;9.70;100.00
12247;BME280;6186;52.022;4.692;2022-12-29T06:58:45;100014.84;;;9.71;100.00
12247;BME280;6186;52.022;4.692;2022-12-29T07:01:10;100024.59;;;9.68;100.00
12247;BME280;6186;52.022;4.692;2022-12-29T07:03:35;100021.22;;;9.64;100.00
12247;BME280;6186;52.022;4.692;2022-12-29T07:06:01;100019.53;;;9.62;100.00
12247;BME280;6186;52.022;4.692;2022-12-29T07:08:26;100031.94;;;9.58;100.00
12247;BME280;6186;52.022;4.692;2022-12-29T07:10:52;100025.03;;;9.56;100.00
12247;BME280;6186;52.022;4.692;2022-12-29T07:13:17;100042.63;;;9.54;100.00
12247;BME280;6186;52.022;4.692;2022-12-29T07:15:42;100023.31;;;9.55;100.00
12247;BME280;6186;52.022;4.692;2022-12-29T07:18:08;100028.56;;;9.55;100.00
12247;BME280;6186;52.022;4.692;2022-12-29T07:20:33;100026.00;;;9.53;100.00
12247;BME280;6186;52.022;4.692;2022-12-29T07:22:59;100046.94;;;9.55;100.00
12247;BME280;6186;52.022;4.692;2022-12-29T07:25:24;100047.81;;;9.55;100.00
12247;BME280;6186;52.022;4.692;2022-12-29T07:27:49;100045.19;;;9.55;100.00
12247;BME280;6186;52.022;4.692;2022-12-29T07:30:15;100045.94;;;9.59;100.00
12247;BME280;6186;52.022;4.692;2022-12-29T07:32:41;100040.75;;;9.57;100.00
12247;BME280;6186;52.022;4.692;2022-12-29T07:35:07;100056.31;;;9.62;100.00
12247;BME280;6186;52.022;4.692;2022-12-29T07:37:33;100047.56;;;9.63;100.00
12247;BME280;6186;52.022;4.692;2022-12-29T07:40:00;100040.53;;;9.63;100.00
12247;BME280;6186;52.022;4.692;2022-12-29T07:42:25;100042.19;;;9.66;100.00
12247;BME280;6186;52.022;4.692;2022-12-29T07:44:51;100039.50;;;9.67;100.00
12247;BME280;6186;52.022;4.692;2022-12-29T07:47:16;100041.16;;;9.70;100.00
12247;BME280;6186;52.022;4.692;2022-12-29T07:49:41;100043.75;;;9.71;100.00
12247;BME280;6186;52.022;4.692;2022-12-29T07:52:07;100052.44;;;9.73;100.00
12247;BME280;6186;52.022;4.692;2022-12-29T07:54:32;100041.84;;;9.75;100.00
12247;BME280;6186;52.022;4.692;2022-12-29T07:56:57;100033.94;;;9.76;100.00
12247;BME280;6186;52.022;4.692;2022-12-29T07:59:25;100025.06;;;9.79;100.00
12247;BME280;6186;52.022;4.692;2022-12-29T08:01:50;100040.81;;;9.80;100.00
12247;BME280;6186;52.022;4.692;2022-12-29T08:04:15;100036.41;;;9.81;100.00
12247;BME280;6186;52.022;4.692;2022-12-29T08:06:41;100037.19;;;9.83;100.00
12247;BME280;6186;52.022;4.692;2022-12-29T08:09:06;100031.00;;;9.85;100.00
12247;BME280;6186;52.022;4.692;2022-12-29T08:11:31;100008.63;;;9.74;100.00
12247;BME280;6186;52.022;4.692;2022-12-29T08:13:57;100037.06;;;9.87;100.00
12247;BME280;6186;52.022;4.692;2022-12-29T08:16:22;100046.69;;;9.87;100.00
12247;BME280;6186;52.022;4.692;2022-12-29T08:18:47;100047.56;;;9.87;100.00
12247;BME280;6186;52.022;4.692;2022-12-29T08:21:13;100044.06;;;9.87;100.00
12247;BME280;6186;52.022;4.692;2022-12-29T08:23:41;100037.06;;;9.87;100.00
12247;BME280;6186;52.022;4.692;2022-12-29T08:26:06;100038.81;;;9.87;100.00
12247;BME280;6186;52.022;4.692;2022-12-29T08:28:32;100044.06;;;9.87;100.00
12247;BME280;6186;52.022;4.692;2022-12-29T08:30:59;100025.25;;;9.74;100.00
12247;BME280;6186;52.022;4.692;2022-12-29T08:33:25;100050.13;;;9.89;100.00
12247;BME280;6186;52.022;4.692;2022-12-29T08:35:50;100059.78;;;9.88;100.00
12247;BME280;6186;52.022;4.692;2022-12-29T08:38:16;100063.34;;;9.87;100.00
12247;BME280;6186;52.022;4.692;2022-12-29T08:40:42;100061.56;;;9.88;100.00
12247;BME280;6186;52.022;4.692;2022-12-29T08:43:07;100051.97;;;9.87;100.00
12247;BME280;6186;52.022;4.692;2022-12-29T08:45:33;100086.13;;;9.87;100.00
12247;BME280;6186;52.022;4.692;2022-12-29T08:47:58;100066.13;;;9.83;100.00
12247;BME280;6186;52.022;4.692;2022-12-29T08:50:23;100080.06;;;9.85;100.00
12247;BME280;6186;52.022;4.692;2022-12-29T08:52:49;100084.44;;;9.84;100.00
12247;BME280;6186;52.022;4.692;2022-12-29T08:55:14;100088.88;;;9.84;100.00
12247;BME280;6186;52.022;4.692;2022-12-29T08:57:40;100093.41;;;9.79;100.00
12247;BME280;6186;52.022;4.692;2022-12-29T09:00:06;100093.47;;;9.77;100.00
12247;BME280;6186;52.022;4.692;2022-12-29T09:02:31;100104.16;;;9.73;100.00
12247;BME280;6186;52.022;4.692;2022-12-29T09:04:57;100115.56;;;9.72;100.00
12247;BME280;6186;52.022;4.692;2022-12-29T09:07:23;100117.38;;;9.70;100.00
12247;BME280;6186;52.022;4.692;2022-12-29T09:09:48;100113.13;;;9.66;100.00
12247;BME280;6186;52.022;4.692;2022-12-29T09:12:15;100142.03;;;9.66;100.00
12247;BME280;6186;52.022;4.692;2022-12-29T09:14:41;100130.72;;;9.64;100.00
12247;BME280;6186;52.022;4.692;2022-12-29T09:17:08;100127.25;;;9.63;100.00
12247;BME280;6186;52.022;4.692;2022-12-29T09:19:52;100129.88;;;9.62;100.00
12247;BME280;6186;52.022;4.692;2022-12-29T09:22:17;100117.69;;;9.61;100.00
12247;BME280;6186;52.022;4.692;2022-12-29T09:24:42;100132.56;;;9.60;100.00
12247;BME280;6186;52.022;4.692;2022-12-29T09:27:08;100152.69;;;9.61;100.00
12247;BME280;6186;52.022;4.692;2022-12-29T09:29:33;100146.72;;;9.56;100.00
12247;BME280;6186;52.022;4.692;2022-12-29T09:31:58;100158.78;;;9.62;100.00
12247;BME280;6186;52.022;4.692;2022-12-29T09:34:23;100159.59;;;9.65;100.00
12247;BME280;6186;52.022;4.692;2022-12-29T09:36:49;100154.47;;;9.61;100.00
12247;BME280;6186;52.022;4.692;2022-12-29T09:39:17;100163.03;;;9.66;100.00
12247;BME280;6186;52.022;4.692;2022-12-29T09:47:16;100181.25;;;9.72;100.00
12247;BME280;6186;52.022;4.692;2022-12-29T09:49:49;100190.88;;;9.73;100.00
12247;BME280;6186;52.022;4.692;2022-12-29T09:52:36;100198.69;;;9.74;100.00
12247;BME280;6186;52.022;4.692;2022-12-29T09:55:09;100195.91;;;9.79;100.00
12247;BME280;6186;52.022;4.692;2022-12-29T09:57:42;100209.03;;;9.80;100.00
12247;BME280;6186;52.022;4.692;2022-12-29T10:00:16;100210.72;;;9.81;100.00
12247;BME280;6186;52.022;4.692;2022-12-29T10:03:13;100211.53;;;9.83;100.00
12247;BME280;6186;52.022;4.692;2022-12-29T10:06:08;100224.53;;;9.88;100.00
12247;BME280;6186;52.022;4.692;2022-12-29T10:08:44;100234.06;;;9.90;100.00
12247;BME280;6186;52.022;4.692;2022-12-29T10:14:19;100231.38;;;9.92;100.00
12247;BME280;6186;52.022;4.692;2022-12-29T10:19:56;100261.03;;;9.97;100.00
12247;BME280;6186;52.022;4.692;2022-12-29T10:22:56;100259.22;;;9.99;100.00
12247;BME280;6186;52.022;4.692;2022-12-29T10:25:26;100250.53;;;9.97;100.00
12247;BME280;6186;52.022;4.692;2022-12-29T10:27:56;100275.69;;;10.04;100.00
12247;BME280;6186;52.022;4.692;2022-12-29T10:30:23;100282.69;;;10.05;100.00
12247;BME280;6186;52.022;4.692;2022-12-29T10:32:55;100289.59;;;10.07;100.00
12247;BME280;6186;52.022;4.692;2022-12-29T10:35:25;100289.56;;;10.10;100.00
12247;BME280;6186;52.022;4.692;2022-12-29T10:38:01;100298.22;;;10.14;100.00
12247;BME280;6186;52.022;4.692;2022-12-29T10:40:35;100295.41;;;10.18;100.00
12247;BME280;6186;52.022;4.692;2022-12-29T10:43:12;100303.06;;;10.26;100.00
12247;BME280;6186;52.022;4.692;2022-12-29T10:45:41;100307.16;;;10.34;100.00
12247;BME280;6186;52.022;4.692;2022-12-29T10:48:13;100307.47;;;10.52;100.00
12247;BME280;6186;52.022;4.692;2022-12-29T10:50:43;100307.66;;;10.96;100.00
12247;BME280;6186;52.022;4.692;2022-12-29T10:53:15;100315.34;;;11.27;100.00
12247;BME280;6186;52.022;4.692;2022-12-29T10:55:44;100319.41;;;11.35;100.00
12247;BME280;6186;52.022;4.692;2022-12-29T10:58:13;100319.16;;;11.42;100.00
12247;BME280;6186;52.022;4.692;2022-12-29T11:00:39;100314.50;;;11.50;100.00
12247;BME280;6186;52.022;4.692;2022-12-29T11:08:39;100335.03;;;11.88;100.00
12247;BME280;6186;52.022;4.692;2022-12-29T11:11:08;100346.09;;;11.74;100.00
12247;BME280;6186;52.022;4.692;2022-12-29T11:13:47;100345.88;;;11.56;100.00
12247;BME280;6186;52.022;4.692;2022-12-29T11:16:13;100362.94;;;11.46;100.00
12247;BME280;6186;52.022;4.692;2022-12-29T11:18:40;100363.22;;;11.38;100.00
12247;BME280;6186;52.022;4.692;2022-12-29T11:21:34;100352.91;;;11.32;100.00
12247;BME280;6186;52.022;4.692;2022-12-29T11:24:19;100369.16;;;11.20;100.00
12247;BME280;6186;52.022;4.692;2022-12-29T11:26:44;100357.16;;;11.11;100.00
12247;BME280;6186;52.022;4.692;2022-12-29T11:29:21;100359.25;;;11.02;100.00
12247;BME280;6186;52.022;4.692;2022-12-29T11:31:52;100359.56;;;10.93;100.00
12247;BME280;6186;52.022;4.692;2022-12-29T11:34:20;100360.59;;;10.89;100.00
12247;BME280;6186;52.022;4.692;2022-12-29T11:36:47;100372.19;;;10.83;100.00
12247;BME280;6186;52.022;4.692;2022-12-29T11:41:53;100375.13;;;10.74;100.00
12247;BME280;6186;52.022;4.692;2022-12-29T11:44:19;100381.09;;;10.79;100.00
12247;BME280;6186;52.022;4.692;2022-12-29T11:46:49;100377.59;;;10.79;100.00
12247;BME280;6186;52.022;4.692;2022-12-29T11:49:21;100381.22;;;10.76;100.00
12247;BME280;6186;52.022;4.692;2022-12-29T11:51:49;100392.56;;;10.78;100.00
12247;BME280;6186;52.022;4.692;2022-12-29T11:56:49;100398.13;;;10.69;100.00
12247;BME280;6186;52.022;4.692;2022-12-29T12:01:57;100403.41;;;10.68;100.00
12247;BME280;6186;52.022;4.692;2022-12-29T12:04:28;100405.22;;;10.67;100.00
12247;BME280;6186;52.022;4.692;2022-12-29T12:07:01;100397.31;;;10.67;100.00
12247;BME280;6186;52.022;4.692;2022-12-29T12:09:32;100404.22;;;10.70;100.00
12247;BME280;6186;52.022;4.692;2022-12-29T12:12:01;100385.91;;;10.67;100.00
12247;BME280;6186;52.022;4.692;2022-12-29T12:14:34;100382.28;;;10.71;100.00
12247;BME280;6186;52.022;4.692;2022-12-29T12:17:16;100390.19;;;10.71;100.00
12247;BME280;6186;52.022;4.692;2022-12-29T12:19:52;100390.88;;;10.76;100.00
12247;BME280;6186;52.022;4.692;2022-12-29T12:22:41;100404.03;;;11.02;100.00
12247;BME280;6186;52.022;4.692;2022-12-29T12:25:21;100406.59;;;11.29;100.00
12247;BME280;6186;52.022;4.692;2022-12-29T12:28:02;100414.50;;;11.29;100.00
12247;BME280;6186;52.022;4.692;2022-12-29T12:30:38;100407.81;;;11.19;100.00
12247;BME280;6186;52.022;4.692;2022-12-29T12:33:28;100411.59;;;11.11;100.00
12247;BME280;6186;52.022;4.692;2022-12-29T12:44:00;100430.03;;;11.11;100.00
12247;BME280;6186;52.022;4.692;2022-12-29T12:51:44;100426.00;;;11.01;100.00
12247;BME280;6186;52.022;4.692;2022-12-29T12:57:18;100434.97;;;10.95;100.00
12247;BME280;6186;52.022;4.692;2022-12-29T13:00:01;100434.94;;;10.97;100.00
12247;BME280;6186;52.022;4.692;2022-12-29T13:02:43;100434.81;;;11.00;100.00
12247;BME280;6186;52.022;4.692;2022-12-29T13:11:28;100440.84;;;11.03;100.00
12247;BME280;6186;52.022;4.692;2022-12-29T13:17:06;100440.13;;;10.98;100.00
12247;BME280;6186;52.022;4.692;2022-12-29T13:20:01;100439.28;;;10.98;100.00
12247;BME280;6186;52.022;4.692;2022-12-29T13:22:38;100439.28;;;10.98;100.00
12247;BME280;6186;52.022;4.692;2022-12-29T13:25:37;100434.94;;;10.97;100.00
12247;BME280;6186;52.022;4.692;2022-12-29T13:28:32;100430.53;;;10.97;100.00
12247;BME280;6186;52.022;4.692;2022-12-29T13:31:12;100433.19;;;10.96;100.00
12247;BME280;6186;52.022;4.692;2022-12-29T13:33:50;100436.69;;;10.96;100.00
12247;BME280;6186;52.022;4.692;2022-12-29T13:36:33;100439.31;;;10.96;100.00
12247;BME280;6186;52.022;4.692;2022-12-29T13:39:23;100439.38;;;10.95;100.00
12247;BME280;6186;52.022;4.692;2022-12-29T13:41:53;100443.06;;;10.89;100.00
12247;BME280;6186;52.022;4.692;2022-12-29T13:44:34;100442.31;;;10.86;100.00
12247;BME280;6186;52.022;4.692;2022-12-29T13:50:06;100445.59;;;10.66;100.00
12247;BME280;6186;52.022;4.692;2022-12-29T13:52:43;100461.50;;;10.63;100.00
12247;BME280;6186;52.022;4.692;2022-12-29T13:58:44;100459.41;;;10.45;100.00
12247;BME280;6186;52.022;4.692;2022-12-29T14:03:49;100462.69;;;10.24;100.00
12247;BME280;6186;52.022;4.692;2022-12-29T14:08:49;100457.84;;;10.09;100.00
12247;BME280;6186;52.022;4.692;2022-12-29T14:11:16;100459.63;;;10.10;100.00
12247;BME280;6186;52.022;4.692;2022-12-29T14:13:45;100453.41;;;10.12;100.00
12247;BME280;6186;52.022;4.692;2022-12-29T14:16:32;100455.19;;;10.12;100.00
12247;BME280;6186;52.022;4.692;2022-12-29T14:19:25;100470.94;;;10.12;100.00
12247;BME280;6186;52.022;4.692;2022-12-29T14:21:55;100449.13;;;10.07;100.00
12247;BME280;6186;52.022;4.692;2022-12-29T14:27:51;100444.66;;;10.12;100.00
12247;BME280;6186;52.022;4.692;2022-12-29T14:29:49;100448.22;;;10.09;100.00
12247;BME280;6186;52.022;4.692;2022-12-29T14:37:29;100449.94;;;10.09;100.00
12247;BME280;6186;52.022;4.692;2022-12-29T14:40:14;100461.38;;;10.08;100.00
12247;BME280;6186;52.022;4.692;2022-12-29T14:42:45;100464.03;;;10.08;100.00
12247;BME280;6186;52.022;4.692;2022-12-29T14:47:46;100465.78;;;10.07;100.00
12247;BME280;6186;52.022;4.692;2022-12-29T14:52:57;100468.47;;;10.06;100.00